sensor_id;sensor_type;location;lat;lon;timestamp;P1;durP1;ratioP1;P2;durP2;ratioP2
8401;SDS011;4238;48.404;9.498;2023-03-23T00:02:19;6.03;;;3.80;;
8401;SDS011;4238;48.404;9.498;2023-03-23T00:04:48;5.00;;;3.40;;
8401;SDS011;4238;48.404;9.498;2023-03-23T00:07:15;3.97;;;2.60;;
8401;SDS011;4238;48.404;9.498;2023-03-23T00:09:53;3.95;;;2.30;;
8401;SDS011;4238;48.404;9.498;2023-03-23T00:12:21;1.75;;;1.67;;
8401;SDS011;4238;48.404;9.498;2023-03-23T00:14:54;4.20;;;3.25;;
8401;SDS011;4238;48.404;9.498;2023-03-23T00:17:21;3.38;;;2.88;;
8401;SDS011;4238;48.404;9.498;2023-03-23T00:19:48;5.25;;;3.35;;
8401;SDS011;4238;48.404;9.498;2023-03-23T00:22:15;2.20;;;2.00;;
8401;SDS011;4238;48.404;9.498;2023-03-23T00:24:44;3.40;;;2.45;;
8401;SDS011;4238;48.404;9.498;2023-03-23T00:27:12;2.42;;;2.20;;
8401;SDS011;4238;48.404;9.498;2023-03-23T00:29:40;2.00;;;1.80;;
8401;SDS011;4238;48.404;9.498;2023-03-23T00:32:07;1.33;;;1.23;;
8401;SDS011;4238;48.404;9.498;2023-03-23T00:34:37;2.20;;;2.00;;
8401;SDS011;4238;48.404;9.498;2023-03-23T00:37:05;2.67;;;1.92;;
8401;SDS011;4238;48.404;9.498;2023-03-23T00:39:33;1.92;;;1.55;;
8401;SDS011;4238;48.404;9.498;2023-03-23T00:42:02;2.08;;;1.95;;
8401;SDS011;4238;48.404;9.498;2023-03-23T00:44:31;1.75;;;1.65;;
8401;SDS011;4238;48.404;9.498;2023-03-23T00:47:00;2.05;;;1.80;;
8401;SDS011;4238;48.404;9.498;2023-03-23T00:49:28;3.25;;;1.60;;
8401;SDS011;4238;48.404;9.498;2023-03-23T00:51:55;2.10;;;1.17;;
8401;SDS011;4238;48.404;9.498;2023-03-23T00:54:24;1.63;;;1.60;;
8401;SDS011;4238;48.404;9.498;2023-03-23T00:56:52;1.77;;;1.40;;
8401;SDS011;4238;48.404;9.498;2023-03-23T00:59:19;1.55;;;1.45;;
8401;SDS011;4238;48.404;9.498;2023-03-23T01:01:48;1.70;;;1.60;;
8401;SDS011;4238;48.404;9.498;2023-03-23T01:04:17;1.70;;;1.60;;
8401;SDS011;4238;48.404;9.498;2023-03-23T01:06:46;1.90;;;1.80;;
8401;SDS011;4238;48.404;9.498;2023-03-23T01:09:15;2.00;;;1.90;;
8401;SDS011;4238;48.404;9.498;2023-03-23T01:11:44;1.60;;;1.50;;
8401;SDS011;4238;48.404;9.498;2023-03-23T01:14:13;1.63;;;1.52;;
8401;SDS011;4238;48.404;9.498;2023-03-23T01:16:40;1.42;;;1.25;;
8401;SDS011;4238;48.404;9.498;2023-03-23T01:19:09;2.03;;;1.63;;
8401;SDS011;4238;48.404;9.498;2023-03-23T01:21:36;3.05;;;1.58;;
8401;SDS011;4238;48.404;9.498;2023-03-23T01:24:03;1.30;;;1.30;;
8401;SDS011;4238;48.404;9.498;2023-03-23T01:26:31;1.85;;;1.75;;
8401;SDS011;4238;48.404;9.498;2023-03-23T01:28:58;1.50;;;1.40;;
8401;SDS011;4238;48.404;9.498;2023-03-23T01:31:25;3.10;;;1.73;;
8401;SDS011;4238;48.404;9.498;2023-03-23T01:33:52;2.80;;;1.70;;
8401;SDS011;4238;48.404;9.498;2023-03-23T01:36:22;1.73;;;1.63;;
8401;SDS011;4238;48.404;9.498;2023-03-23T01:38:51;1.35;;;1.35;;
8401;SDS011;4238;48.404;9.498;2023-03-23T01:41:19;1.65;;;1.50;;
8401;SDS011;4238;48.404;9.498;2023-03-23T01:43:56;1.50;;;1.50;;
8401;SDS011;4238;48.404;9.498;2023-03-23T01:46:26;1.50;;;1.40;;
8401;SDS011;4238;48.404;9.498;2023-03-23T01:48:54;1.83;;;1.73;;
8401;SDS011;4238;48.404;9.498;2023-03-23T01:51:25;1.60;;;1.40;;
8401;SDS011;4238;48.404;9.498;2023-03-23T01:53:55;1.65;;;1.55;;
8401;SDS011;4238;48.404;9.498;2023-03-23T01:56:27;2.28;;;1.58;;
8401;SDS011;4238;48.404;9.498;2023-03-23T01:58:58;2.25;;;1.77;;
8401;SDS011;4238;48.404;9.498;2023-03-23T02:01:26;1.10;;;1.10;;
8401;SDS011;4238;48.404;9.498;2023-03-23T02:03:54;1.50;;;1.40;;
8401;SDS011;4238;48.404;9.498;2023-03-23T02:06:24;2.05;;;1.58;;
8401;SDS011;4238;48.404;9.498;2023-03-23T02:08:51;2.13;;;2.03;;
8401;SDS011;4238;48.404;9.498;2023-03-23T02:11:20;1.88;;;1.77;;
8401;SDS011;4238;48.404;9.498;2023-03-23T02:13:48;1.73;;;1.63;;
8401;SDS011;4238;48.404;9.498;2023-03-23T02:16:19;2.92;;;1.55;;
8401;SDS011;4238;48.404;9.498;2023-03-23T02:18:53;1.55;;;1.55;;
8401;SDS011;4238;48.404;9.498;2023-03-23T02:21:37;1.70;;;1.60;;
8401;SDS011;4238;48.404;9.498;2023-03-23T02:24:39;2.10;;;1.85;;
8401;SDS011;4238;48.404;9.498;2023-03-23T02:27:20;2.72;;;1.95;;
8401;SDS011;4238;48.404;9.498;2023-03-23T02:30:21;1.60;;;1.45;;
8401;SDS011;4238;48.404;9.498;2023-03-23T02:33:12;2.28;;;1.90;;
8401;SDS011;4238;48.404;9.498;2023-03-23T02:35:58;2.00;;;1.77;;
8401;SDS011;4238;48.404;9.498;2023-03-23T02:38:30;1.65;;;1.55;;
8401;SDS011;4238;48.404;9.498;2023-03-23T02:41:01;1.67;;;1.58;;
8401;SDS011;4238;48.404;9.498;2023-03-23T02:43:31;2.17;;;1.40;;
8401;SDS011;4238;48.404;9.498;2023-03-23T02:46:06;2.97;;;1.98;;
8401;SDS011;4238;48.404;9.498;2023-03-23T02:48:37;2.00;;;1.90;;
8401;SDS011;4238;48.404;9.498;2023-03-23T02:51:07;4.57;;;1.95;;
8401;SDS011;4238;48.404;9.498;2023-03-23T02:53:37;1.00;;;1.00;;
8401;SDS011;4238;48.404;9.498;2023-03-23T02:56:07;1.70;;;1.60;;
8401;SDS011;4238;48.404;9.498;2023-03-23T02:58:36;1.70;;;1.60;;
8401;SDS011;4238;48.404;9.498;2023-03-23T03:01:14;1.70;;;1.30;;
8401;SDS011;4238;48.404;9.498;2023-03-23T03:04:05;1.25;;;1.25;;
8401;SDS011;4238;48.404;9.498;2023-03-23T03:06:40;1.38;;;1.30;;
8401;SDS011;4238;48.404;9.498;2023-03-23T03:09:13;2.17;;;1.60;;
8401;SDS011;4238;48.404;9.498;2023-03-23T03:11:48;1.95;;;1.75;;
8401;SDS011;4238;48.404;9.498;2023-03-23T03:14:19;2.33;;;1.77;;
8401;SDS011;4238;48.404;9.498;2023-03-23T03:16:52;1.63;;;1.52;;
8401;SDS011;4238;48.404;9.498;2023-03-23T03:19:28;2.80;;;2.03;;
8401;SDS011;4238;48.404;9.498;2023-03-23T03:21:58;2.50;;;2.15;;
8401;SDS011;4238;48.404;9.498;2023-03-23T03:24:27;1.67;;;1.58;;
8401;SDS011;4238;48.404;9.498;2023-03-23T03:26:56;1.80;;;1.70;;
8401;SDS011;4238;48.404;9.498;2023-03-23T03:29:26;1.75;;;1.65;;
8401;SDS011;4238;48.404;9.498;2023-03-23T03:31:56;1.42;;;1.42;;
8401;SDS011;4238;48.404;9.498;2023-03-23T03:34:25;1.88;;;1.77;;
8401;SDS011;4238;48.404;9.498;2023-03-23T03:36:57;1.83;;;1.67;;
8401;SDS011;4238;48.404;9.498;2023-03-23T03:39:26;2.83;;;1.63;;
8401;SDS011;4238;48.404;9.498;2023-03-23T03:41:53;1.55;;;1.45;;
8401;SDS011;4238;48.404;9.498;2023-03-23T03:44:21;1.73;;;1.50;;
8401;SDS011;4238;48.404;9.498;2023-03-23T03:46:48;4.65;;;1.90;;
8401;SDS011;4238;48.404;9.498;2023-03-23T03:49:15;1.65;;;1.50;;
8401;SDS011;4238;48.404;9.498;2023-03-23T03:51:44;1.80;;;1.70;;
8401;SDS011;4238;48.404;9.498;2023-03-23T03:54:11;1.85;;;1.73;;
8401;SDS011;4238;48.404;9.498;2023-03-23T03:56:38;1.70;;;1.60;;
8401;SDS011;4238;48.404;9.498;2023-03-23T03:59:06;2.00;;;1.90;;
8401;SDS011;4238;48.404;9.498;2023-03-23T04:01:34;2.50;;;1.80;;
8401;SDS011;4238;48.404;9.498;2023-03-23T04:04:03;2.40;;;1.83;;
8401;SDS011;4238;48.404;9.498;2023-03-23T04:06:31;2.08;;;1.98;;
8401;SDS011;4238;48.404;9.498;2023-03-23T04:09:02;2.03;;;1.80;;
8401;SDS011;4238;48.404;9.498;2023-03-23T04:11:31;3.07;;;2.30;;
8401;SDS011;4238;48.404;9.498;2023-03-23T04:13:58;2.25;;;1.95;;
8401;SDS011;4238;48.404;9.498;2023-03-23T04:16:25;1.90;;;1.80;;
8401;SDS011;4238;48.404;9.498;2023-03-23T04:18:54;1.75;;;1.65;;
8401;SDS011;4238;48.404;9.498;2023-03-23T04:21:22;2.40;;;2.20;;
8401;SDS011;4238;48.404;9.498;2023-03-23T04:23:53;3.40;;;2.30;;
8401;SDS011;4238;48.404;9.498;2023-03-23T04:26:25;2.80;;;1.90;;
8401;SDS011;4238;48.404;9.498;2023-03-23T04:28:53;2.85;;;2.58;;
8401;SDS011;4238;48.404;9.498;2023-03-23T04:31:20;2.10;;;2.00;;
8401;SDS011;4238;48.404;9.498;2023-03-23T04:33:49;3.05;;;2.70;;
8401;SDS011;4238;48.404;9.498;2023-03-23T04:36:18;2.50;;;2.30;;
8401;SDS011;4238;48.404;9.498;2023-03-23T04:38:47;2.50;;;2.30;;
8401;SDS011;4238;48.404;9.498;2023-03-23T04:41:15;2.28;;;2.15;;
8401;SDS011;4238;48.404;9.498;2023-03-23T04:43:44;2.55;;;2.45;;
8401;SDS011;4238;48.404;9.498;2023-03-23T04:46:11;2.35;;;2.20;;
8401;SDS011;4238;48.404;9.498;2023-03-23T04:48:43;2.97;;;2.42;;
8401;SDS011;4238;48.404;9.498;2023-03-23T04:51:10;3.83;;;2.70;;
8401;SDS011;4238;48.404;9.498;2023-03-23T04:53:37;3.17;;;2.90;;
8401;SDS011;4238;48.404;9.498;2023-03-23T04:56:04;4.45;;;3.03;;
8401;SDS011;4238;48.404;9.498;2023-03-23T04:58:31;3.65;;;2.90;;
8401;SDS011;4238;48.404;9.498;2023-03-23T05:01:00;3.15;;;2.85;;
8401;SDS011;4238;48.404;9.498;2023-03-23T05:03:27;2.63;;;2.42;;
8401;SDS011;4238;48.404;9.498;2023-03-23T05:05:54;3.38;;;2.88;;
8401;SDS011;4238;48.404;9.498;2023-03-23T05:08:21;3.08;;;2.72;;
8401;SDS011;4238;48.404;9.498;2023-03-23T05:10:50;4.25;;;2.55;;
8401;SDS011;4238;48.404;9.498;2023-03-23T05:13:18;3.35;;;2.88;;
8401;SDS011;4238;48.404;9.498;2023-03-23T05:15:45;2.87;;;2.67;;
8401;SDS011;4238;48.404;9.498;2023-03-23T05:18:13;3.10;;;2.90;;
8401;SDS011;4238;48.404;9.498;2023-03-23T05:20:41;3.40;;;3.10;;
8401;SDS011;4238;48.404;9.498;2023-03-23T05:23:08;3.13;;;2.70;;
8401;SDS011;4238;48.404;9.498;2023-03-23T05:25:36;3.83;;;3.28;;
8401;SDS011;4238;48.404;9.498;2023-03-23T05:28:05;3.50;;;3.20;;
8401;SDS011;4238;48.404;9.498;2023-03-23T05:30:32;2.92;;;2.70;;
8401;SDS011;4238;48.404;9.498;2023-03-23T05:33:00;2.97;;;2.78;;
8401;SDS011;4238;48.404;9.498;2023-03-23T05:35:29;3.20;;;2.90;;
8401;SDS011;4238;48.404;9.498;2023-03-23T05:37:57;3.35;;;2.60;;
8401;SDS011;4238;48.404;9.498;2023-03-23T05:40:24;3.22;;;3.03;;
8401;SDS011;4238;48.404;9.498;2023-03-23T05:42:52;4.63;;;2.78;;
8401;SDS011;4238;48.404;9.498;2023-03-23T05:45:22;3.03;;;2.83;;
8401;SDS011;4238;48.404;9.498;2023-03-23T05:47:49;3.60;;;3.28;;
8401;SDS011;4238;48.404;9.498;2023-03-23T05:50:16;3.65;;;3.17;;
8401;SDS011;4238;48.404;9.498;2023-03-23T05:52:45;3.67;;;3.35;;
8401;SDS011;4238;48.404;9.498;2023-03-23T05:55:12;3.40;;;3.10;;
8401;SDS011;4238;48.404;9.498;2023-03-23T05:57:40;3.30;;;3.00;;
8401;SDS011;4238;48.404;9.498;2023-03-23T06:00:07;3.25;;;3.05;;
8401;SDS011;4238;48.404;9.498;2023-03-23T06:02:45;3.13;;;2.83;;
8401;SDS011;4238;48.404;9.498;2023-03-23T06:05:13;3.95;;;3.55;;
8401;SDS011;4238;48.404;9.498;2023-03-23T06:07:40;3.65;;;3.35;;
8401;SDS011;4238;48.404;9.498;2023-03-23T06:10:09;3.87;;;3.57;;
8401;SDS011;4238;48.404;9.498;2023-03-23T06:12:37;5.07;;;3.40;;
8401;SDS011;4238;48.404;9.498;2023-03-23T06:15:05;3.38;;;3.08;;
8401;SDS011;4238;48.404;9.498;2023-03-23T06:17:34;3.03;;;2.72;;
8401;SDS011;4238;48.404;9.498;2023-03-23T06:20:01;4.82;;;3.22;;
8401;SDS011;4238;48.404;9.498;2023-03-23T06:22:34;4.43;;;3.35;;
8401;SDS011;4238;48.404;9.498;2023-03-23T06:25:01;3.40;;;3.10;;
8401;SDS011;4238;48.404;9.498;2023-03-23T06:27:30;3.42;;;3.10;;
8401;SDS011;4238;48.404;9.498;2023-03-23T06:29:57;3.30;;;3.00;;
8401;SDS011;4238;48.404;9.498;2023-03-23T06:32:24;2.53;;;2.42;;
8401;SDS011;4238;48.404;9.498;2023-03-23T06:34:53;3.50;;;3.20;;
8401;SDS011;4238;48.404;9.498;2023-03-23T06:37:22;3.53;;;3.25;;
8401;SDS011;4238;48.404;9.498;2023-03-23T06:39:49;3.25;;;3.00;;
8401;SDS011;4238;48.404;9.498;2023-03-23T06:42:16;3.55;;;3.35;;
8401;SDS011;4238;48.404;9.498;2023-03-23T06:44:45;3.50;;;3.20;;
8401;SDS011;4238;48.404;9.498;2023-03-23T06:47:12;4.45;;;3.10;;
8401;SDS011;4238;48.404;9.498;2023-03-23T06:49:39;3.20;;;3.00;;
8401;SDS011;4238;48.404;9.498;2023-03-23T06:52:06;2.97;;;2.70;;
8401;SDS011;4238;48.404;9.498;2023-03-23T06:54:33;3.85;;;3.05;;
8401;SDS011;4238;48.404;9.498;2023-03-23T06:57:00;2.53;;;2.33;;
8401;SDS011;4238;48.404;9.498;2023-03-23T06:59:27;2.97;;;2.78;;
8401;SDS011;4238;48.404;9.498;2023-03-23T07:01:55;2.88;;;2.72;;
8401;SDS011;4238;48.404;9.498;2023-03-23T07:04:22;3.20;;;2.95;;
8401;SDS011;4238;48.404;9.498;2023-03-23T07:06:50;3.03;;;2.83;;
8401;SDS011;4238;48.404;9.498;2023-03-23T07:09:17;3.40;;;3.17;;
8401;SDS011;4238;48.404;9.498;2023-03-23T07:11:43;3.10;;;2.90;;
8401;SDS011;4238;48.404;9.498;2023-03-23T07:14:12;3.40;;;3.08;;
8401;SDS011;4238;48.404;9.498;2023-03-23T07:16:40;2.95;;;2.75;;
8401;SDS011;4238;48.404;9.498;2023-03-23T07:19:08;3.00;;;2.80;;
8401;SDS011;4238;48.404;9.498;2023-03-23T07:21:36;3.33;;;3.03;;
8401;SDS011;4238;48.404;9.498;2023-03-23T07:24:03;3.38;;;3.08;;
8401;SDS011;4238;48.404;9.498;2023-03-23T07:26:30;3.15;;;2.85;;
8401;SDS011;4238;48.404;9.498;2023-03-23T07:28:58;3.13;;;2.70;;
8401;SDS011;4238;48.404;9.498;2023-03-23T07:31:25;5.32;;;2.90;;
8401;SDS011;4238;48.404;9.498;2023-03-23T07:33:52;3.80;;;3.20;;
8401;SDS011;4238;48.404;9.498;2023-03-23T07:36:20;2.90;;;2.70;;
8401;SDS011;4238;48.404;9.498;2023-03-23T07:38:47;3.22;;;2.90;;
8401;SDS011;4238;48.404;9.498;2023-03-23T07:41:15;4.82;;;3.05;;
8401;SDS011;4238;48.404;9.498;2023-03-23T07:43:42;2.65;;;2.47;;
8401;SDS011;4238;48.404;9.498;2023-03-23T07:46:09;3.17;;;2.97;;
8401;SDS011;4238;48.404;9.498;2023-03-23T07:48:36;2.85;;;2.65;;
8401;SDS011;4238;48.404;9.498;2023-03-23T07:51:04;3.30;;;2.65;;
8401;SDS011;4238;48.404;9.498;2023-03-23T07:53:33;3.08;;;2.83;;
8401;SDS011;4238;48.404;9.498;2023-03-23T07:56:00;3.22;;;2.80;;
8401;SDS011;4238;48.404;9.498;2023-03-23T07:58:28;3.47;;;3.17;;
8401;SDS011;4238;48.404;9.498;2023-03-23T08:00:55;2.45;;;2.35;;
8401;SDS011;4238;48.404;9.498;2023-03-23T08:03:22;3.35;;;2.78;;
8401;SDS011;4238;48.404;9.498;2023-03-23T08:05:51;3.10;;;2.85;;
8401;SDS011;4238;48.404;9.498;2023-03-23T08:08:18;2.72;;;2.53;;
8401;SDS011;4238;48.404;9.498;2023-03-23T08:10:46;3.47;;;2.90;;
8401;SDS011;4238;48.404;9.498;2023-03-23T08:13:14;2.92;;;2.50;;
8401;SDS011;4238;48.404;9.498;2023-03-23T08:15:41;2.60;;;2.40;;
8401;SDS011;4238;48.404;9.498;2023-03-23T08:18:08;2.95;;;2.75;;
8401;SDS011;4238;48.404;9.498;2023-03-23T08:20:35;2.78;;;2.33;;
8401;SDS011;4238;48.404;9.498;2023-03-23T08:23:03;3.25;;;2.40;;
8401;SDS011;4238;48.404;9.498;2023-03-23T08:25:31;2.85;;;2.65;;
8401;SDS011;4238;48.404;9.498;2023-03-23T08:28:00;2.55;;;2.35;;
8401;SDS011;4238;48.404;9.498;2023-03-23T08:30:27;2.95;;;2.75;;
8401;SDS011;4238;48.404;9.498;2023-03-23T08:32:55;2.83;;;2.20;;
8401;SDS011;4238;48.404;9.498;2023-03-23T08:35:23;4.32;;;2.65;;
8401;SDS011;4238;48.404;9.498;2023-03-23T08:37:50;2.72;;;2.53;;
8401;SDS011;4238;48.404;9.498;2023-03-23T08:40:19;2.35;;;2.22;;
8401;SDS011;4238;48.404;9.498;2023-03-23T08:42:47;3.15;;;2.60;;
8401;SDS011;4238;48.404;9.498;2023-03-23T08:45:17;2.00;;;1.90;;
8401;SDS011;4238;48.404;9.498;2023-03-23T08:47:46;3.47;;;2.75;;
8401;SDS011;4238;48.404;9.498;2023-03-23T08:50:17;2.50;;;2.30;;
8401;SDS011;4238;48.404;9.498;2023-03-23T08:52:45;2.08;;;1.98;;
8401;SDS011;4238;48.404;9.498;2023-03-23T08:55:12;3.28;;;2.35;;
8401;SDS011;4238;48.404;9.498;2023-03-23T08:57:40;2.17;;;2.08;;
8401;SDS011;4238;48.404;9.498;2023-03-23T09:00:10;1.77;;;1.67;;
8401;SDS011;4238;48.404;9.498;2023-03-23T09:02:44;2.33;;;2.10;;
8401;SDS011;4238;48.404;9.498;2023-03-23T09:05:13;2.15;;;1.75;;
8401;SDS011;4238;48.404;9.498;2023-03-23T09:07:43;2.15;;;1.95;;
8401;SDS011;4238;48.404;9.498;2023-03-23T09:10:12;2.10;;;1.90;;
8401;SDS011;4238;48.404;9.498;2023-03-23T09:12:40;1.67;;;1.58;;
8401;SDS011;4238;48.404;9.498;2023-03-23T09:15:08;14.25;;;3.63;;
8401;SDS011;4238;48.404;9.498;2023-03-23T09:17:38;7.20;;;3.13;;
8401;SDS011;4238;48.404;9.498;2023-03-23T09:20:09;4.50;;;4.10;;
8401;SDS011;4238;48.404;9.498;2023-03-23T09:22:38;7.93;;;5.68;;
8401;SDS011;4238;48.404;9.498;2023-03-23T09:25:06;7.90;;;6.20;;
8401;SDS011;4238;48.404;9.498;2023-03-23T09:27:35;8.45;;;6.00;;
8401;SDS011;4238;48.404;9.498;2023-03-23T09:30:04;4.60;;;4.20;;
8401;SDS011;4238;48.404;9.498;2023-03-23T09:32:32;2.72;;;2.53;;
8401;SDS011;4238;48.404;9.498;2023-03-23T09:34:59;1.88;;;1.77;;
8401;SDS011;4238;48.404;9.498;2023-03-23T09:37:28;2.25;;;2.13;;
8401;SDS011;4238;48.404;9.498;2023-03-23T09:39:55;2.00;;;1.90;;
8401;SDS011;4238;48.404;9.498;2023-03-23T09:42:30;2.20;;;2.00;;
8401;SDS011;4238;48.404;9.498;2023-03-23T09:45:09;2.15;;;2.05;;
8401;SDS011;4238;48.404;9.498;2023-03-23T09:47:44;2.30;;;1.88;;
8401;SDS011;4238;48.404;9.498;2023-03-23T09:50:30;1.85;;;1.75;;
8401;SDS011;4238;48.404;9.498;2023-03-23T09:53:09;1.60;;;1.52;;
8401;SDS011;4238;48.404;9.498;2023-03-23T09:55:40;1.98;;;1.60;;
8401;SDS011;4238;48.404;9.498;2023-03-23T09:58:09;1.60;;;1.50;;
8401;SDS011;4238;48.404;9.498;2023-03-23T10:00:41;3.20;;;1.70;;
8401;SDS011;4238;48.404;9.498;2023-03-23T10:03:13;1.80;;;1.70;;
8401;SDS011;4238;48.404;9.498;2023-03-23T10:05:42;4.03;;;1.98;;
8401;SDS011;4238;48.404;9.498;2023-03-23T10:08:14;2.08;;;1.83;;
8401;SDS011;4238;48.404;9.498;2023-03-23T10:10:46;1.63;;;1.50;;
8401;SDS011;4238;48.404;9.498;2023-03-23T10:13:22;2.15;;;1.55;;
8401;SDS011;4238;48.404;9.498;2023-03-23T10:15:58;1.65;;;1.55;;
8401;SDS011;4238;48.404;9.498;2023-03-23T10:18:27;1.80;;;1.70;;
8401;SDS011;4238;48.404;9.498;2023-03-23T10:21:02;1.70;;;1.60;;
8401;SDS011;4238;48.404;9.498;2023-03-23T10:23:49;2.13;;;1.60;;
8401;SDS011;4238;48.404;9.498;2023-03-23T10:26:23;1.83;;;1.73;;
8401;SDS011;4238;48.404;9.498;2023-03-23T10:29:00;1.83;;;1.73;;
8401;SDS011;4238;48.404;9.498;2023-03-23T10:31:37;1.90;;;1.80;;
8401;SDS011;4238;48.404;9.498;2023-03-23T10:34:09;1.70;;;1.60;;
8401;SDS011;4238;48.404;9.498;2023-03-23T10:36:41;1.55;;;1.45;;
8401;SDS011;4238;48.404;9.498;2023-03-23T10:39:20;1.80;;;1.70;;
8401;SDS011;4238;48.404;9.498;2023-03-23T10:41:49;3.20;;;2.65;;
8401;SDS011;4238;48.404;9.498;2023-03-23T10:44:18;4.32;;;3.92;;
8401;SDS011;4238;48.404;9.498;2023-03-23T10:46:48;1.92;;;1.83;;
8401;SDS011;4238;48.404;9.498;2023-03-23T10:49:22;2.50;;;2.30;;
8401;SDS011;4238;48.404;9.498;2023-03-23T10:51:53;3.08;;;2.63;;
8401;SDS011;4238;48.404;9.498;2023-03-23T10:54:31;3.40;;;2.95;;
8401;SDS011;4238;48.404;9.498;2023-03-23T10:57:11;4.95;;;3.25;;
8401;SDS011;4238;48.404;9.498;2023-03-23T10:59:40;3.20;;;2.60;;
8401;SDS011;4238;48.404;9.498;2023-03-23T11:02:18;2.45;;;2.17;;
8401;SDS011;4238;48.404;9.498;2023-03-23T11:04:53;2.60;;;2.40;;
8401;SDS011;4238;48.404;9.498;2023-03-23T11:07:24;2.28;;;2.17;;
8401;SDS011;4238;48.404;9.498;2023-03-23T11:09:55;2.15;;;2.05;;
8401;SDS011;4238;48.404;9.498;2023-03-23T11:12:24;2.75;;;2.25;;
8401;SDS011;4238;48.404;9.498;2023-03-23T11:14:51;1.63;;;1.52;;
8401;SDS011;4238;48.404;9.498;2023-03-23T11:17:22;1.92;;;1.83;;
8401;SDS011;4238;48.404;9.498;2023-03-23T11:19:51;1.80;;;1.70;;
8401;SDS011;4238;48.404;9.498;2023-03-23T11:22:20;1.95;;;1.85;;
8401;SDS011;4238;48.404;9.498;2023-03-23T11:24:52;2.15;;;1.98;;
8401;SDS011;4238;48.404;9.498;2023-03-23T11:27:21;1.65;;;1.55;;
8401;SDS011;4238;48.404;9.498;2023-03-23T11:29:50;2.28;;;2.13;;
8401;SDS011;4238;48.404;9.498;2023-03-23T11:32:21;3.58;;;1.67;;
8401;SDS011;4238;48.404;9.498;2023-03-23T11:34:53;1.95;;;1.70;;
8401;SDS011;4238;48.404;9.498;2023-03-23T11:37:24;1.50;;;1.40;;
8401;SDS011;4238;48.404;9.498;2023-03-23T11:39:57;2.05;;;1.65;;
8401;SDS011;4238;48.404;9.498;2023-03-23T11:42:25;2.03;;;1.90;;
8401;SDS011;4238;48.404;9.498;2023-03-23T11:45:07;2.10;;;2.00;;
8401;SDS011;4238;48.404;9.498;2023-03-23T11:47:42;2.67;;;2.47;;
8401;SDS011;4238;48.404;9.498;2023-03-23T11:50:17;2.40;;;2.25;;
8401;SDS011;4238;48.404;9.498;2023-03-23T11:52:47;2.20;;;2.05;;
8401;SDS011;4238;48.404;9.498;2023-03-23T11:55:21;4.20;;;3.58;;
8401;SDS011;4238;48.404;9.498;2023-03-23T11:57:51;3.10;;;2.80;;
8401;SDS011;4238;48.404;9.498;2023-03-23T12:00:20;2.75;;;2.40;;
8401;SDS011;4238;48.404;9.498;2023-03-23T12:02:55;2.08;;;1.90;;
8401;SDS011;4238;48.404;9.498;2023-03-23T12:05:33;2.22;;;2.13;;
8401;SDS011;4238;48.404;9.498;2023-03-23T12:08:12;3.17;;;2.15;;
8401;SDS011;4238;48.404;9.498;2023-03-23T12:10:52;2.75;;;2.55;;
8401;SDS011;4238;48.404;9.498;2023-03-23T12:13:33;2.78;;;2.58;;
8401;SDS011;4238;48.404;9.498;2023-03-23T12:16:17;3.47;;;3.17;;
8401;SDS011;4238;48.404;9.498;2023-03-23T12:18:55;2.67;;;2.47;;
8401;SDS011;4238;48.404;9.498;2023-03-23T12:21:31;2.38;;;2.28;;
8401;SDS011;4238;48.404;9.498;2023-03-23T12:24:06;3.10;;;2.90;;
8401;SDS011;4238;48.404;9.498;2023-03-23T12:26:44;2.58;;;2.05;;
8401;SDS011;4238;48.404;9.498;2023-03-23T12:32:22;3.72;;;3.40;;
8401;SDS011;4238;48.404;9.498;2023-03-23T12:34:58;3.65;;;2.35;;
8401;SDS011;4238;48.404;9.498;2023-03-23T12:37:39;3.10;;;2.80;;
8401;SDS011;4238;48.404;9.498;2023-03-23T12:40:31;2.80;;;2.65;;
8401;SDS011;4238;48.404;9.498;2023-03-23T12:43:08;4.07;;;2.75;;
8401;SDS011;4238;48.404;9.498;2023-03-23T12:45:49;2.65;;;2.45;;
8401;SDS011;4238;48.404;9.498;2023-03-23T12:48:37;2.78;;;2.53;;
8401;SDS011;4238;48.404;9.498;2023-03-23T12:51:17;2.97;;;2.78;;
8401;SDS011;4238;48.404;9.498;2023-03-23T12:53:52;3.85;;;3.50;;
8401;SDS011;4238;48.404;9.498;2023-03-23T12:56:24;5.45;;;4.60;;
8401;SDS011;4238;48.404;9.498;2023-03-23T12:58:59;6.65;;;6.05;;
8401;SDS011;4238;48.404;9.498;2023-03-23T13:01:30;3.78;;;3.42;;
8401;SDS011;4238;48.404;9.498;2023-03-23T13:03:59;4.78;;;4.38;;
8401;SDS011;4238;48.404;9.498;2023-03-23T13:06:31;9.73;;;7.32;;
8401;SDS011;4238;48.404;9.498;2023-03-23T13:09:02;7.05;;;6.07;;
8401;SDS011;4238;48.404;9.498;2023-03-23T13:11:32;6.22;;;5.25;;
8401;SDS011;4238;48.404;9.498;2023-03-23T13:14:06;3.35;;;3.05;;
8401;SDS011;4238;48.404;9.498;2023-03-23T13:16:43;4.90;;;3.38;;
8401;SDS011;4238;48.404;9.498;2023-03-23T13:19:17;4.60;;;3.30;;
8401;SDS011;4238;48.404;9.498;2023-03-23T13:21:52;5.65;;;3.15;;
8401;SDS011;4238;48.404;9.498;2023-03-23T13:24:26;4.20;;;3.35;;
8401;SDS011;4238;48.404;9.498;2023-03-23T13:26:55;7.68;;;6.75;;
8401;SDS011;4238;48.404;9.498;2023-03-23T13:29:24;6.15;;;4.20;;
8401;SDS011;4238;48.404;9.498;2023-03-23T13:32:03;3.50;;;3.10;;
8401;SDS011;4238;48.404;9.498;2023-03-23T13:34:32;3.40;;;3.10;;
8401;SDS011;4238;48.404;9.498;2023-03-23T13:36:59;3.65;;;3.35;;
8401;SDS011;4238;48.404;9.498;2023-03-23T13:39:29;3.28;;;3.03;;
8401;SDS011;4238;48.404;9.498;2023-03-23T13:42:00;3.10;;;2.70;;
8401;SDS011;4238;48.404;9.498;2023-03-23T13:44:41;2.70;;;2.50;;
8401;SDS011;4238;48.404;9.498;2023-03-23T13:47:16;3.70;;;3.38;;
8401;SDS011;4238;48.404;9.498;2023-03-23T13:49:53;5.40;;;4.90;;
8401;SDS011;4238;48.404;9.498;2023-03-23T13:52:22;3.10;;;2.85;;
8401;SDS011;4238;48.404;9.498;2023-03-23T13:54:51;2.60;;;2.40;;
8401;SDS011;4238;48.404;9.498;2023-03-23T13:57:36;2.40;;;2.20;;
8401;SDS011;4238;48.404;9.498;2023-03-23T14:00:31;2.85;;;2.58;;
8401;SDS011;4238;48.404;9.498;2023-03-23T14:03:02;3.03;;;2.70;;
8401;SDS011;4238;48.404;9.498;2023-03-23T14:05:33;3.50;;;3.17;;
8401;SDS011;4238;48.404;9.498;2023-03-23T14:08:02;4.28;;;3.75;;
8401;SDS011;4238;48.404;9.498;2023-03-23T14:10:38;4.75;;;3.65;;
8401;SDS011;4238;48.404;9.498;2023-03-23T14:13:14;3.75;;;3.30;;
8401;SDS011;4238;48.404;9.498;2023-03-23T14:15:53;2.53;;;2.33;;
8401;SDS011;4238;48.404;9.498;2023-03-23T14:18:23;2.38;;;2.28;;
8401;SDS011;4238;48.404;9.498;2023-03-23T14:20:53;2.60;;;2.40;;
8401;SDS011;4238;48.404;9.498;2023-03-23T14:23:23;2.88;;;2.67;;
8401;SDS011;4238;48.404;9.498;2023-03-23T14:25:56;2.78;;;2.58;;
8401;SDS011;4238;48.404;9.498;2023-03-23T14:28:31;2.17;;;2.08;;
8401;SDS011;4238;48.404;9.498;2023-03-23T14:31:00;2.47;;;2.28;;
8401;SDS011;4238;48.404;9.498;2023-03-23T14:33:27;3.38;;;2.70;;
8401;SDS011;4238;48.404;9.498;2023-03-23T14:35:56;2.45;;;2.35;;
8401;SDS011;4238;48.404;9.498;2023-03-23T14:38:24;3.65;;;3.30;;
8401;SDS011;4238;48.404;9.498;2023-03-23T14:40:59;2.85;;;2.50;;
8401;SDS011;4238;48.404;9.498;2023-03-23T14:43:27;2.55;;;2.35;;
8401;SDS011;4238;48.404;9.498;2023-03-23T14:45:57;3.25;;;3.00;;
8401;SDS011;4238;48.404;9.498;2023-03-23T14:48:27;2.10;;;2.00;;
8401;SDS011;4238;48.404;9.498;2023-03-23T14:50:56;2.55;;;2.35;;
8401;SDS011;4238;48.404;9.498;2023-03-23T14:53:25;2.88;;;2.67;;
8401;SDS011;4238;48.404;9.498;2023-03-23T14:55:58;5.07;;;2.63;;
8401;SDS011;4238;48.404;9.498;2023-03-23T14:58:27;2.70;;;2.50;;
8401;SDS011;4238;48.404;9.498;2023-03-23T15:00:55;4.97;;;2.10;;
8401;SDS011;4238;48.404;9.498;2023-03-23T15:03:26;4.90;;;2.45;;
8401;SDS011;4238;48.404;9.498;2023-03-23T15:05:56;2.65;;;2.45;;
8401;SDS011;4238;48.404;9.498;2023-03-23T15:08:26;2.80;;;2.58;;
8401;SDS011;4238;48.404;9.498;2023-03-23T15:10:58;2.88;;;2.60;;
8401;SDS011;4238;48.404;9.498;2023-03-23T15:13:30;2.70;;;2.50;;
8401;SDS011;4238;48.404;9.498;2023-03-23T15:16:04;2.55;;;2.42;;
8401;SDS011;4238;48.404;9.498;2023-03-23T15:18:36;2.90;;;2.70;;
8401;SDS011;4238;48.404;9.498;2023-03-23T15:21:07;3.10;;;2.60;;
8401;SDS011;4238;48.404;9.498;2023-03-23T15:23:40;3.20;;;2.90;;
8401;SDS011;4238;48.404;9.498;2023-03-23T15:26:24;2.97;;;2.58;;
8401;SDS011;4238;48.404;9.498;2023-03-23T15:29:10;2.70;;;2.50;;
8401;SDS011;4238;48.404;9.498;2023-03-23T15:31:41;4.05;;;2.70;;
8401;SDS011;4238;48.404;9.498;2023-03-23T15:34:14;3.50;;;3.20;;
8401;SDS011;4238;48.404;9.498;2023-03-23T15:36:54;2.58;;;2.40;;
8401;SDS011;4238;48.404;9.498;2023-03-23T15:39:22;2.58;;;2.47;;
8401;SDS011;4238;48.404;9.498;2023-03-23T15:41:50;2.60;;;2.40;;